Time;durP1;ratioP1;P1;durP2;ratioP2;P2;SDS_P1;SDS_P2;PMS_P1;PMS_P2;Temp;Humidity;BMP_temperature;BMP_pressure;BME280_temperature;BME280_humidity;BME280_pressure;Samples;Min_cycle;Max_cycle;Signal;HPM_P1;HPM_P2
2021/07/17 00:01:22;;;;;;;35.90;20.33;;;;;;;22.48;65.73;99256.66;5114583;28;20553;-75
2021/07/17 00:03:47;;;;;;;39.97;20.63;;;;;;;22.50;65.70;99266.19;5114723;28;20557;-77
2021/07/17 00:06:13;;;;;;;37.92;20.55;;;;;;;22.52;65.66;99256.03;5114372;28;20047;-76
2021/07/17 00:08:39;;;;;;;34.58;19.08;;;;;;;22.54;65.79;99250.44;5114658;28;20096;-78
2021/07/17 00:11:05;;;;;;;36.40;20.27;;;;;;;22.56;65.78;99251.06;5113604;28;20138;-75
2021/07/17 00:13:31;;;;;;;35.20;19.42;;;;;;;22.58;65.62;99251.66;5114360;28;20044;-78
2021/07/17 00:15:57;;;;;;;35.55;19.67;;;;;;;22.61;65.07;99257.47;5114691;28;20081;-78
2021/07/17 00:18:23;;;;;;;36.85;20.80;;;;;;;22.65;65.14;99254.38;5114235;28;20040;-77
2021/07/17 00:20:49;;;;;;;36.03;20.17;;;;;;;22.65;65.36;99249.81;5114231;28;20126;-77
2021/07/17 00:23:16;;;;;;;36.70;19.70;;;;;;;22.61;65.44;99248.56;5114129;28;20046;-75
2021/07/17 00:25:47;;;;;;;38.90;21.05;;;;;;;22.48;66.25;99248.56;5113860;27;20082;-77
2021/07/17 00:28:20;;;;;;;34.13;21.23;;;;;;;22.23;66.65;99246.44;5113963;28;20047;-77
2021/07/17 00:30:47;;;;;;;36.03;20.42;;;;;;;22.03;67.16;99247.25;5113089;28;20127;-73
2021/07/17 00:33:13;;;;;;;38.50;20.30;;;;;;;21.92;67.52;99247.81;5114204;28;20050;-74
2021/07/17 00:35:39;;;;;;;36.80;20.50;;;;;;;21.87;68.18;99253.81;5113343;28;20035;-75
2021/07/17 00:38:05;;;;;;;41.67;21.17;;;;;;;21.86;68.36;99262.94;5114568;28;20119;-77
2021/07/17 00:40:32;;;;;;;39.13;20.75;;;;;;;21.88;68.32;99254.66;5112824;28;20047;-73
2021/07/17 00:42:58;;;;;;;38.03;20.80;;;;;;;21.86;68.55;99259.41;5114099;28;20480;-78
2021/07/17 00:45:24;;;;;;;37.05;20.85;;;;;;;21.87;68.60;99263.75;5114043;28;20104;-75
2021/07/17 00:47:50;;;;;;;41.97;21.23;;;;;;;21.85;68.92;99255.06;5112814;28;20515;-74
2021/07/17 00:50:18;;;;;;;38.30;20.58;;;;;;;21.80;68.82;99267.25;5113780;28;20047;-76
2021/07/17 00:52:43;;;;;;;;;;;;;;;21.72;69.72;99267.44;5114429;28;20529;-76
2021/07/17 00:55:10;;;;;;;41.78;22.38;;;;;;;21.64;70.16;99262.22;5113824;28;19919;-73
2021/07/17 00:57:38;;;;;;;40.80;22.13;;;;;;;21.55;71.01;99255.34;5113485;28;20496;-73
2021/07/17 01:00:11;;;;;;;45.10;23.17;;;;;;;21.49;71.17;99262.34;5112356;28;20039;-75
2021/07/17 01:02:39;;;;;;;49.67;23.60;;;;;;;21.43;72.21;99268.50;5112679;27;20126;-75
2021/07/17 01:05:06;;;;;;;44.83;25.13;;;;;;;21.40;72.61;99260.84;5113925;28;20047;-75
2021/07/17 01:07:47;;;;;;;49.25;25.90;;;;;;;21.38;73.08;99261.03;5113356;28;20052;-74
2021/07/17 01:10:13;;;;;;;40.78;24.10;;;;;;;21.36;72.21;99262.25;5112928;28;20047;-73
2021/07/17 01:12:39;;;;;;;36.60;21.53;;;;;;;21.33;72.05;99258.13;5113103;28;20479;-76
2021/07/17 01:15:06;;;;;;;41.97;23.30;;;;;;;21.28;72.26;99260.56;5113095;28;20059;-73
2021/07/17 01:17:33;;;;;;;45.53;24.17;;;;;;;21.22;72.41;99262.22;5113297;28;20046;-75
2021/07/17 01:19:59;;;;;;;42.20;23.20;;;;;;;21.21;72.71;99265.09;5113386;28;20035;-73
2021/07/17 01:22:25;;;;;;;40.30;22.35;;;;;;;21.18;72.59;99260.94;5112963;28;20500;-75
2021/07/17 01:25:03;;;;;;;43.13;22.75;;;;;;;21.12;72.43;99254.50;5111956;28;20047;-75
2021/07/17 01:27:29;;;;;;;37.38;21.73;;;;;;;21.07;72.67;99258.78;5113040;28;20043;-76
2021/07/17 01:30:12;;;;;;;42.05;21.10;;;;;;;21.05;72.23;99255.47;5112041;28;20047;-78
2021/07/17 01:32:38;;;;;;;43.70;21.05;;;;;;;21.06;72.46;99263.34;5112878;28;20043;-73
2021/07/17 01:35:05;;;;;;;42.20;21.50;;;;;;;21.09;72.15;99262.94;5112028;28;20084;-74
2021/07/17 01:37:31;;;;;;;40.90;21.60;;;;;;;21.11;72.24;99266.28;5112709;28;20089;-74
2021/07/17 01:39:57;;;;;;;39.05;21.88;;;;;;;21.19;72.17;99267.16;5112659;28;20044;-77
2021/07/17 01:42:23;;;;;;;38.33;22.10;;;;;;;21.25;72.19;99269.88;5112586;28;20040;-73
2021/07/17 01:44:49;;;;;;;37.45;20.63;;;;;;;21.32;72.09;99269.91;5112981;28;20440;-74
2021/07/17 01:47:15;;;;;;;43.75;22.30;;;;;;;21.37;71.94;99263.94;5112772;28;20043;-71
2021/07/17 01:49:42;;;;;;;46.97;22.88;;;;;;;21.41;71.44;99266.03;5112585;28;20161;-75
2021/07/17 01:52:08;;;;;;;44.47;21.67;;;;;;;21.43;71.36;99258.59;5112829;28;20408;-73
2021/07/17 01:54:34;;;;;;;36.33;20.77;;;;;;;21.44;71.20;99256.72;5110998;28;20043;-75
2021/07/17 01:57:02;;;;;;;41.85;21.80;;;;;;;21.40;70.97;99253.59;5112994;28;20085;-79
2021/07/17 01:59:28;;;;;;;;;;;;;;;21.38;71.17;99261.03;5112010;28;20514;-78
2021/07/17 02:01:54;;;;;;;44.63;21.80;;;;;;;21.32;71.70;99256.44;5109507;28;20056;-76
2021/07/17 02:04:20;;;;;;;47.03;23.15;;;;;;;21.30;71.93;99247.78;5111753;28;20035;-76
2021/07/17 02:06:45;;;;;;;35.50;21.10;;;;;;;21.31;71.80;99257.50;5112212;28;20032;-75
2021/07/17 02:09:11;;;;;;;38.75;21.50;;;;;;;21.33;71.36;99252.75;5112444;28;20079;-78
2021/07/17 02:11:38;;;;;;;37.42;21.05;;;;;;;21.35;71.26;99253.38;5093900;28;20043;-74
2021/07/17 02:14:04;;;;;;;37.13;21.02;;;;;;;21.37;71.39;99262.09;5094508;28;20050;-71
2021/07/17 02:16:30;;;;;;;39.35;21.30;;;;;;;21.37;71.47;99254.03;5112017;28;20375;-74
2021/07/17 02:19:04;;;;;;;38.80;21.17;;;;;;;21.35;71.75;99253.38;5111123;28;20108;-76
2021/07/17 02:21:30;;;;;;;39.60;22.02;;;;;;;21.37;71.45;99254.03;5113936;28;20050;-74
2021/07/17 02:23:56;;;;;;;43.58;21.60;;;;;;;21.43;71.96;99257.75;5116300;28;20035;-74
2021/07/17 02:26:21;;;;;;;38.72;21.20;;;;;;;21.49;71.52;99256.97;5116263;28;20044;-75
2021/07/17 02:28:47;;;;;;;38.22;22.10;;;;;;;21.53;71.48;99257.38;5097892;28;20042;-77
2021/07/17 02:31:13;;;;;;;36.05;21.98;;;;;;;21.57;71.73;99255.97;5098380;28;20579;-75
2021/07/17 02:33:39;;;;;;;38.03;21.98;;;;;;;21.62;71.50;99251.66;5097578;28;20067;-74
2021/07/17 02:36:05;;;;;;;39.05;22.23;;;;;;;21.71;71.54;99254.16;5115406;28;20040;-77
2021/07/17 02:38:30;;;;;;;41.40;21.75;;;;;;;21.81;71.09;99247.38;5115850;28;20035;-76
2021/07/17 02:40:56;;;;;;;43.75;22.63;;;;;;;21.90;70.79;99245.34;5116216;28;20042;-73
2021/07/17 02:43:22;;;;;;;45.53;22.92;;;;;;;21.99;70.59;99245.97;5116053;28;20138;-76
2021/07/17 02:45:48;;;;;;;38.13;21.25;;;;;;;22.07;70.10;99250.34;5114932;28;20035;-72
2021/07/17 02:48:14;;;;;;;39.63;23.20;;;;;;;22.16;69.95;99245.59;5116182;28;20047;-76
2021/07/17 02:50:40;;;;;;;45.22;21.77;;;;;;;22.24;69.51;99250.78;5116088;28;20304;-73
2021/07/17 02:53:06;;;;;;;37.15;22.08;;;;;;;22.34;69.29;99248.50;5115882;28;20514;-73
2021/07/17 02:55:32;;;;;;;42.42;23.20;;;;;;;22.43;69.24;99249.16;5114296;28;20100;-73
2021/07/17 02:57:58;;;;;;;44.00;22.02;;;;;;;22.52;69.05;99257.88;5115978;28;20039;-74
2021/07/17 03:00:23;;;;;;;41.63;22.85;;;;;;;22.58;68.98;99259.75;5114382;28;20051;-72
2021/07/17 03:02:49;;;;;;;41.50;23.25;;;;;;;22.66;68.82;99256.84;5115945;28;20044;-75
2021/07/17 03:05:15;;;;;;;40.15;22.42;;;;;;;22.75;68.26;99252.94;5116093;28;20608;-74
2021/07/17 03:07:41;;;;;;;41.15;23.25;;;;;;;22.87;68.63;99258.50;5115585;27;20053;-73
2021/07/17 03:10:07;;;;;;;46.15;24.35;;;;;;;22.92;69.19;99255.19;5115820;28;20140;-76
2021/07/17 03:12:33;;;;;;;51.43;25.57;;;;;;;22.92;69.47;99261.41;5115748;28;20058;-73
2021/07/17 03:15:00;;;;;;;51.50;26.02;;;;;;;22.98;69.74;99259.75;5117098;28;20041;-72
2021/07/17 03:17:25;;;;;;;41.55;24.38;;;;;;;23.00;69.18;99257.66;5116199;28;20073;-76
2021/07/17 03:19:51;;;;;;;41.92;24.67;;;;;;;23.06;69.82;99267.59;5117253;28;20071;-75
2021/07/17 03:22:17;;;;;;;48.95;26.33;;;;;;;23.12;69.93;99260.53;5116840;28;20035;-77
2021/07/17 03:24:43;;;;;;;45.50;25.45;;;;;;;23.17;70.13;99266.16;5114108;28;20044;-74
2021/07/17 03:27:09;;;;;;;50.45;25.88;;;;;;;23.28;69.60;99264.69;5115677;28;20046;-74
2021/07/17 03:29:35;;;;;;;54.13;26.08;;;;;;;23.37;69.79;99263.41;5115212;28;20044;-73
2021/07/17 03:32:00;;;;;;;47.47;26.10;;;;;;;23.52;68.85;99265.03;5114561;27;20456;-75
2021/07/17 03:34:26;;;;;;;46.85;24.55;;;;;;;23.66;68.59;99266.63;5114640;28;20048;-74
2021/07/17 03:36:52;;;;;;;50.13;25.55;;;;;;;23.79;68.54;99263.06;5115247;28;20500;-73
2021/07/17 03:39:18;;;;;;;44.95;24.80;;;;;;;23.96;67.66;99266.09;5114931;28;20035;-74
2021/07/17 03:41:43;;;;;;;42.75;23.95;;;;;;;24.09;66.56;99261.66;5114808;28;20069;-74
2021/07/17 03:44:10;;;;;;;48.10;24.90;;;;;;;24.19;67.14;99270.13;5115180;28;20047;-73
2021/07/17 03:46:36;;;;;;;50.03;25.20;;;;;;;24.28;67.09;99274.22;5113298;28;20054;-73
2021/07/17 03:49:02;;;;;;;49.03;24.55;;;;;;;24.43;66.61;99270.41;5114904;28;20074;-74
2021/07/17 03:51:29;;;;;;;48.38;26.95;;;;;;;24.50;66.88;99268.44;5114777;27;20039;-77
2021/07/17 03:53:55;;;;;;;48.53;25.85;;;;;;;24.59;66.40;99272.53;5114233;28;20036;-74
2021/07/17 03:56:21;;;;;;;55.45;27.15;;;;;;;24.71;65.96;99278.94;5114545;28;20043;-75
2021/07/17 03:58:47;;;;;;;52.70;27.27;;;;;;;24.81;65.45;99261.34;5114212;28;20032;-73
2021/07/17 04:01:13;;;;;;;49.80;26.02;;;;;;;24.92;65.03;99257.91;5113955;28;20039;-73
2021/07/17 04:03:38;;;;;;;47.28;24.48;;;;;;;25.04;64.49;99263.44;5113966;28;20123;-73
2021/07/17 04:06:04;;;;;;;44.88;26.42;;;;;;;25.16;64.15;99263.50;5113208;28;20388;-77
2021/07/17 04:08:30;;;;;;;54.47;30.75;;;;;;;25.42;63.48;99256.19;5113783;28;20058;-75
2021/07/17 04:10:55;;;;;;;50.88;25.17;;;;;;;26.90;59.62;99263.06;5113565;28;20091;-76
2021/07/17 04:13:21;;;;;;;41.40;21.48;;;;;;;28.49;53.39;99249.13;5113260;28;20544;-76
2021/07/17 04:15:47;;;;;;;38.53;21.83;;;;;;;29.33;49.86;99257.47;5113761;28;20677;-74
2021/07/17 04:18:13;;;;;;;40.70;20.67;;;;;;;30.33;47.68;99259.09;5096103;28;20039;-71
2021/07/17 04:20:38;;;;;;;33.53;18.90;;;;;;;31.11;44.28;99263.28;5113602;28;20436;-76
2021/07/17 04:23:05;;;;;;;30.77;18.73;;;;;;;32.16;41.66;99260.66;5114129;28;20177;-74
2021/07/17 04:25:30;;;;;;;32.13;18.73;;;;;;;32.72;40.14;99257.94;5110274;28;20044;-77
2021/07/17 04:27:56;;;;;;;31.98;18.83;;;;;;;33.16;38.53;99255.69;5110156;28;20286;-77
2021/07/17 04:30:22;;;;;;;30.33;20.50;;;;;;;33.85;37.34;99258.75;5110433;28;20051;-76
2021/07/17 04:32:48;;;;;;;35.07;20.67;;;;;;;34.26;36.60;99253.00;5105195;28;20050;-77
2021/07/17 04:35:14;;;;;;;28.63;18.67;;;;;;;34.86;34.85;99254.72;5092012;28;20089;-76
2021/07/17 04:37:40;;;;;;;27.63;18.02;;;;;;;34.96;34.45;99260.09;5112345;28;20036;-76
2021/07/17 04:40:06;;;;;;;25.67;17.97;;;;;;;35.68;33.66;99266.72;5112286;28;20066;-77
2021/07/17 04:42:32;;;;;;;31.65;17.63;;;;;;;36.22;32.47;99267.31;5112313;28;20404;-77
2021/07/17 04:44:57;;;;;;;31.80;18.77;;;;;;;36.42;31.69;99266.19;5112394;28;20047;-79
2021/07/17 04:47:23;;;;;;;25.67;18.03;;;;;;;37.22;30.41;99262.56;5112794;28;20548;-77
2021/07/17 04:49:49;;;;;;;27.07;18.10;;;;;;;37.60;29.77;99258.78;5112042;28;20287;-76
2021/07/17 04:52:15;;;;;;;27.38;18.05;;;;;;;38.18;29.00;99260.81;5112659;28;20039;-79
2021/07/17 04:54:41;;;;;;;29.38;18.30;;;;;;;38.66;28.21;99259.34;5094042;28;20097;-75
2021/07/17 04:57:07;;;;;;;25.98;18.63;;;;;;;38.61;28.06;99258.66;5094246;28;20122;-76
2021/07/17 04:59:33;;;;;;;26.90;18.45;;;;;;;38.33;28.92;99258.81;5093800;28;20487;-77
2021/07/17 05:01:59;;;;;;;27.27;16.50;;;;;;;39.31;27.56;99267.31;5111355;28;20038;-76
2021/07/17 05:04:24;;;;;;;23.73;17.00;;;;;;;39.24;27.33;99266.97;5093543;28;20531;-78
2021/07/17 05:06:50;;;;;;;26.25;18.25;;;;;;;39.43;27.02;99267.50;5111918;28;20127;-76
2021/07/17 05:09:16;;;;;;;25.10;16.90;;;;;;;40.44;25.51;99268.59;5111892;28;20123;-76
2021/07/17 05:11:42;;;;;;;27.23;16.88;;;;;;;40.64;25.22;99260.72;5109345;28;20097;-76
2021/07/17 05:14:07;;;;;;;21.92;17.23;;;;;;;41.01;24.26;99263.88;5094131;28;20040;-76
2021/07/17 05:16:33;;;;;;;21.85;15.38;;;;;;;41.76;23.16;99260.53;5101164;28;20471;-78
2021/07/17 05:18:59;;;;;;;23.40;15.93;;;;;;;42.55;22.09;99265.41;5093791;28;20054;-78
2021/07/17 05:21:25;;;;;;;19.80;15.60;;;;;;;42.79;21.52;99266.66;5093072;28;20484;-75
2021/07/17 05:23:50;;;;;;;20.92;15.93;;;;;;;43.33;20.94;99267.63;5093115;28;20040;-77
2021/07/17 05:26:16;;;;;;;20.27;15.13;;;;;;;43.56;20.58;99263.19;5111898;28;20101;-77
2021/07/17 05:28:42;;;;;;;;;;;;;;;44.24;19.81;99260.78;5094405;28;20079;-77
2021/07/17 05:31:08;;;;;;;21.58;16.05;;;;;;;43.78;20.23;99258.25;5094968;28;19915;-84
2021/07/17 05:33:34;;;;;;;22.67;15.60;;;;;;;44.26;19.46;99269.63;5078212;28;20088;-78
2021/07/17 05:36:00;;;;;;;21.52;15.07;;;;;;;44.97;18.77;99266.34;5076819;28;20028;-78
2021/07/17 05:38:26;;;;;;;20.50;15.82;;;;;;;44.96;18.42;99265.50;5108105;28;20044;-77
2021/07/17 05:40:52;;;;;;;20.95;14.88;;;;;;;45.55;18.34;99268.53;5087527;28;20043;-77
2021/07/17 05:43:17;;;;;;;21.40;15.13;;;;;;;46.11;17.38;99258.13;5076288;28;20092;-80
2021/07/17 05:45:43;;;;;;;19.17;14.52;;;;;;;46.27;17.11;99266.44;5103962;28;20572;-78
2021/07/17 05:48:09;;;;;;;18.33;15.10;;;;;;;45.88;17.82;99268.03;5111093;28;20599;-78
2021/07/17 05:50:35;;;;;;;19.35;14.60;;;;;;;46.09;17.62;99266.91;5094979;28;20036;-78
2021/07/17 05:53:08;;;;;;;19.65;13.90;;;;;;;46.42;16.89;99262.75;5095077;28;20039;-76
2021/07/17 05:55:34;;;;;;;22.38;16.50;;;;;;;46.65;16.73;99264.75;5092739;28;20047;-77
2021/07/17 05:58:00;;;;;;;22.70;14.75;;;;;;;46.42;17.29;99259.94;5092356;28;20407;-78
2021/07/17 06:00:26;;;;;;;23.80;15.25;;;;;;;47.02;16.84;99261.38;5084849;28;20105;-79
2021/07/17 06:02:52;;;;;;;21.38;14.32;;;;;;;47.33;16.09;99259.47;5093969;28;20040;-80
2021/07/17 06:05:18;;;;;;;17.13;14.93;;;;;;;47.82;16.03;99269.00;5094736;28;20046;-79
2021/07/17 06:07:43;;;;;;;20.17;14.18;;;;;;;48.29;15.50;99266.75;5077908;28;20243;-78
2021/07/17 06:10:10;;;;;;;24.00;14.73;;;;;;;48.18;15.36;99263.81;5077334;28;20116;-83
2021/07/17 06:12:38;;;;;;;18.85;14.35;;;;;;;47.85;15.50;99250.63;5112141;28;20603;-83
2021/07/17 06:15:05;;;;;;;20.45;15.30;;;;;;;47.50;15.62;99257.34;5077301;28;20100;-79
2021/07/17 06:17:31;;;;;;;20.95;14.90;;;;;;;47.64;15.76;99249.13;5111873;28;20050;-79
2021/07/17 06:19:57;;;;;;;19.63;14.57;;;;;;;47.50;16.07;99252.56;5112905;28;20399;-80
2021/07/17 06:22:23;;;;;;;21.92;15.30;;;;;;;47.38;16.33;99255.56;5094162;28;20071;-82
2021/07/17 06:24:48;;;;;;;20.70;14.57;;;;;;;47.75;15.28;99255.66;5112696;28;20395;-77
2021/07/17 06:27:14;;;;;;;20.30;16.02;;;;;;;46.23;16.42;99248.78;5112626;28;20056;-79
2021/07/17 06:29:40;;;;;;;19.58;16.38;;;;;;;45.69;17.24;99248.50;5061583;28;20039;-78
2021/07/17 06:32:06;;;;;;;19.73;15.32;;;;;;;45.67;17.82;99245.25;5112292;28;20035;-80
2021/07/17 06:34:33;;;;;;;18.13;14.68;;;;;;;46.21;16.55;99245.53;5094646;28;20084;-82
2021/07/17 06:36:59;;;;;;;19.48;15.35;;;;;;;47.27;16.25;99241.38;5094050;28;20050;-76
2021/07/17 06:39:25;;;;;;;21.27;14.50;;;;;;;47.60;15.22;99245.47;5112641;28;20124;-78
2021/07/17 06:41:50;;;;;;;14.93;13.43;;;;;;;47.41;14.85;99246.38;5112018;28;20510;-80
2021/07/17 06:44:17;;;;;;;16.42;13.30;;;;;;;47.46;15.30;99244.09;5112501;28;20035;-78
2021/07/17 06:46:43;;;;;;;16.73;15.02;;;;;;;47.24;15.00;99247.75;5077160;28;20036;-79
2021/07/17 06:49:09;;;;;;;16.10;14.05;;;;;;;46.99;15.20;99245.34;5112303;28;20054;-80
2021/07/17 06:51:35;;;;;;;20.17;15.07;;;;;;;47.27;15.03;99246.97;5112094;28;20051;-81
2021/07/17 06:54:01;;;;;;;17.83;14.93;;;;;;;48.03;14.49;99246.03;5094571;28;20089;-79
2021/07/17 06:56:27;;;;;;;20.83;14.57;;;;;;;48.24;14.13;99239.88;5094468;28;20472;-78
2021/07/17 06:58:53;;;;;;;18.75;14.20;;;;;;;47.38;15.35;99245.13;5076924;28;20047;-79
2021/07/17 07:01:20;;;;;;;16.65;14.43;;;;;;;47.23;15.37;99243.34;5093725;28;20040;-82
2021/07/17 07:03:45;;;;;;;21.35;16.30;;;;;;;46.40;16.23;99247.50;5077212;28;20054;-79
2021/07/17 07:06:11;;;;;;;20.23;16.05;;;;;;;46.05;16.83;99242.84;5076609;28;20040;-79
2021/07/17 07:08:37;;;;;;;17.58;15.52;;;;;;;45.39;17.07;99241.44;5115653;28;20055;-80
2021/07/17 07:11:03;;;;;;;19.20;15.13;;;;;;;46.40;16.23;99228.75;5098076;28;20541;-84
2021/07/17 07:13:30;;;;;;;18.08;15.63;;;;;;;45.36;17.25;99241.34;5080734;28;20050;-81
2021/07/17 07:15:56;;;;;;;21.23;15.32;;;;;;;45.30;16.88;99231.63;5081343;28;20047;-79
2021/07/17 07:18:22;;;;;;;19.90;15.68;;;;;;;45.45;17.09;99228.00;5115805;28;20031;-81
2021/07/17 07:20:48;;;;;;;19.63;15.70;;;;;;;46.25;16.22;99227.66;5115606;28;20054;-80
2021/07/17 07:23:14;;;;;;;19.83;16.13;;;;;;;44.86;17.21;99227.00;5080343;28;20078;-78
2021/07/17 07:25:40;;;;;;;17.55;15.65;;;;;;;44.91;17.33;99233.13;5097408;28;20051;-78
2021/07/17 07:28:06;;;;;;;20.08;15.32;;;;;;;44.90;16.69;99239.88;5096789;28;20128;-82
2021/07/17 07:30:32;;;;;;;17.33;15.15;;;;;;;46.63;15.53;99225.94;5115475;28;20515;-77
2021/07/17 07:32:58;;;;;;;24.02;15.27;;;;;;;47.90;14.33;99228.66;5115162;28;20036;-79
2021/07/17 07:35:25;;;;;;;25.70;15.57;;;;;;;47.24;15.03;99228.16;5098065;28;20054;-80
2021/07/17 07:37:51;;;;;;;19.48;15.82;;;;;;;46.14;15.76;99216.25;5080492;28;20051;-80
2021/07/17 07:40:19;;;;;;;17.08;15.07;;;;;;;46.51;15.43;99221.34;5097011;28;20047;-77
2021/07/17 07:42:45;;;;;;;25.80;18.23;;;;;;;46.60;15.85;99223.06;5079511;28;20044;-79
2021/07/17 07:45:16;;;;;;;19.70;16.23;;;;;;;47.25;14.86;99212.97;5097323;28;20032;-78
2021/07/17 07:47:41;;;;;;;19.23;15.65;;;;;;;47.31;14.53;99217.06;5096422;28;20122;-78
2021/07/17 07:50:08;;;;;;;19.48;16.30;;;;;;;46.38;16.05;99205.94;5114950;28;20194;-82
2021/07/17 07:52:35;;;;;;;19.15;16.27;;;;;;;46.99;14.85;99212.53;5096520;28;20046;-79
2021/07/17 07:55:01;;;;;;;20.00;15.75;;;;;;;48.17;14.55;99210.91;5114719;28;20412;-79
2021/07/17 07:57:27;;;;;;;21.23;15.52;;;;;;;47.93;13.56;99211.06;5079581;28;20130;-81
2021/07/17 07:59:52;;;;;;;21.38;15.23;;;;;;;47.04;14.42;99217.03;5114931;28;20134;-78
2021/07/17 08:02:18;;;;;;;19.33;14.23;;;;;;;47.35;14.14;99206.69;5115517;28;20040;-81
2021/07/17 08:04:44;;;;;;;19.00;15.60;;;;;;;47.22;14.09;99213.69;5047084;28;20044;-80
2021/07/17 08:07:10;;;;;;;18.13;14.60;;;;;;;48.19;13.28;99219.75;5114661;28;20180;-78
2021/07/17 08:09:36;;;;;;;16.98;14.25;;;;;;;47.89;13.44;99215.00;5113790;28;20059;-78
2021/07/17 08:12:02;;;;;;;20.23;15.10;;;;;;;46.12;14.51;99215.81;5048885;28;20036;-81
2021/07/17 08:14:29;;;;;;;22.70;15.02;;;;;;;45.45;15.27;99216.81;5063465;28;20123;-81
2021/07/17 08:16:55;;;;;;;17.52;14.07;;;;;;;45.47;15.53;99214.44;5076449;28;20055;-81
2021/07/17 08:19:21;;;;;;;18.60;14.25;;;;;;;45.54;14.95;99203.47;5074987;28;20052;-82
2021/07/17 08:21:47;;;;;;;19.45;13.38;;;;;;;46.64;13.52;99198.78;5075242;28;20044;-80
2021/07/17 08:24:13;;;;;;;14.55;13.02;;;;;;;47.04;13.28;99197.41;5058936;28;20061;-81
2021/07/17 08:26:40;;;;;;;17.30;15.07;;;;;;;46.76;13.94;99195.81;5025528;28;20044;-78
2021/07/17 08:29:06;;;;;;;20.42;15.60;;;;;;;47.68;13.23;99202.31;5059870;28;20039;-80
2021/07/17 08:31:33;;;;;;;17.25;12.82;;;;;;;48.00;12.78;99196.31;5059877;28;20566;-80
2021/07/17 08:33:59;;;;;;;15.15;13.52;;;;;;;47.63;13.11;99194.25;5076628;28;20039;-77
2021/07/17 08:36:25;;;;;;;14.38;11.63;;;;;;;45.34;14.07;99204.56;5061832;28;20040;-79
2021/07/17 08:38:51;;;;;;;13.32;10.43;;;;;;;43.51;14.97;99201.31;5043147;28;20051;-78
2021/07/17 08:41:21;;;;;;;12.00;9.93;;;;;;;42.24;15.52;99199.97;5059117;28;20044;-78
2021/07/17 08:43:48;;;;;;;11.60;10.35;;;;;;;42.34;15.84;99194.00;5076305;28;20031;-78
2021/07/17 08:46:14;;;;;;;13.27;10.23;;;;;;;44.57;13.91;99190.78;5059413;28;20520;-80
2021/07/17 08:48:41;;;;;;;11.35;10.25;;;;;;;44.88;13.75;99191.16;5075585;28;20083;-78
2021/07/17 08:51:06;;;;;;;11.07;9.65;;;;;;;44.03;14.09;99182.94;5058760;28;20189;-80
2021/07/17 08:53:33;;;;;;;10.80;9.10;;;;;;;41.46;15.90;99182.00;5092178;28;20047;-81
2021/07/17 08:55:59;;;;;;;13.65;9.88;;;;;;;39.64;17.84;99175.53;5093715;28;20044;-79
2021/07/17 08:58:24;;;;;;;13.35;10.25;;;;;;;39.53;18.37;99185.28;5075512;28;20046;-78
2021/07/17 09:00:50;;;;;;;;;;;;;;;42.36;15.84;99182.53;5076071;28;20131;-79
2021/07/17 09:03:19;;;;;;;13.77;11.00;;;;;;;44.29;14.59;99179.66;5058801;28;19982;-79
2021/07/17 09:05:46;;;;;;;13.73;11.50;;;;;;;44.95;13.73;99176.56;5041858;28;20080;-81
2021/07/17 09:08:14;;;;;;;14.73;11.05;;;;;;;45.74;13.27;99174.69;5075805;28;20055;-80
2021/07/17 09:10:48;;;;;;;12.13;9.60;;;;;;;45.87;12.94;99181.75;5058685;28;20063;-80
2021/07/17 09:13:17;;;;;;;12.13;10.23;;;;;;;46.40;12.68;99174.78;5058618;28;20047;-77
2021/07/17 09:15:48;;;;;;;13.98;10.52;;;;;;;47.10;12.18;99169.94;5074875;28;20105;-79
2021/07/17 09:18:16;;;;;;;12.68;11.20;;;;;;;47.62;11.69;99178.63;5058614;28;20096;-79
2021/07/17 09:21:04;;;;;;;12.20;10.85;;;;;;;47.52;12.22;99166.13;5074987;28;20044;-80
2021/07/17 09:23:33;;;;;;;12.25;11.02;;;;;;;47.30;12.20;99170.59;5058548;28;20492;-77
2021/07/17 09:26:01;;;;;;;14.93;10.93;;;;;;;47.56;12.16;99163.34;5074918;28;20122;-81
2021/07/17 09:28:32;;;;;;;12.88;11.68;;;;;;;47.94;11.71;99165.03;5058594;28;20079;-83
2021/07/17 09:30:59;;;;;;;13.52;11.35;;;;;;;48.25;11.69;99156.50;5075269;28;20051;-78
2021/07/17 09:33:26;;;;;;;13.18;11.52;;;;;;;48.68;11.23;99150.44;5075305;28;20044;-81
2021/07/17 09:35:54;;;;;;;20.65;14.57;;;;;;;48.52;11.36;99148.72;5058268;28;20101;-82
2021/07/17 09:38:21;;;;;;;17.17;12.48;;;;;;;47.63;12.30;99155.00;5057942;28;20135;-80
2021/07/17 09:40:57;;;;;;;19.92;15.77;;;;;;;46.68;12.80;99146.47;5057761;28;20040;-79
2021/07/17 09:43:38;;;;;;;14.20;12.88;;;;;;;46.82;13.14;99152.31;5074757;28;20083;-79
2021/07/17 09:46:34;;;;;;;16.13;12.63;;;;;;;47.24;12.82;99153.31;5074538;28;20408;-83
2021/07/17 09:49:02;;;;;;;16.90;13.05;;;;;;;45.09;14.31;99148.97;5030191;28;20045;-82
2021/07/17 09:51:30;;;;;;;15.93;13.52;;;;;;;44.35;15.42;99144.78;4996848;28;20045;-82
2021/07/17 09:54:01;;;;;;;18.55;13.73;;;;;;;45.88;14.16;99128.28;5029296;28;20064;-79
2021/07/17 09:56:28;;;;;;;15.13;13.63;;;;;;;45.96;14.17;99129.25;5014192;28;20402;-81
2021/07/17 09:58:58;;;;;;;15.00;12.68;;;;;;;46.12;13.26;99117.94;5028940;28;20057;-78
2021/07/17 10:01:28;;;;;;;13.88;12.27;;;;;;;45.28;13.47;99119.47;5032044;28;20061;-78
2021/07/17 10:04:06;;;;;;;16.35;14.65;;;;;;;45.48;13.19;99115.50;5032825;28;20202;-82
2021/07/17 10:06:50;;;;;;;15.77;13.35;;;;;;;45.31;13.86;99111.16;5032347;28;20041;-79
2021/07/17 10:09:16;;;;;;;13.75;12.25;;;;;;;45.65;13.35;99099.47;5016594;28;20494;-78
2021/07/17 10:11:45;;;;;;;15.68;12.50;;;;;;;45.84;13.36;99099.47;5049585;28;20060;-81
2021/07/17 10:14:19;;;;;;;16.48;12.90;;;;;;;46.14;13.38;99090.41;5033657;28;20049;-80
2021/07/17 10:16:48;;;;;;;18.77;14.57;;;;;;;45.41;14.76;99095.00;5049454;28;20135;-81
2021/07/17 10:19:18;;;;;;;15.57;13.93;;;;;;;44.57;15.06;99093.16;5000778;28;20095;-80
2021/07/17 10:21:45;;;;;;;18.75;14.63;;;;;;;44.10;15.20;99089.19;5016112;28;20045;-82
2021/07/17 10:24:11;;;;;;;17.00;14.10;;;;;;;44.22;15.78;99093.06;5000310;28;20037;-79
2021/07/17 10:26:38;;;;;;;15.88;14.18;;;;;;;45.07;14.90;99096.28;5091407;28;20377;-80
2021/07/17 10:29:05;;;;;;;17.65;14.13;;;;;;;44.90;15.31;99091.94;5091004;28;20043;-81
2021/07/17 10:31:32;;;;;;;21.30;15.40;;;;;;;43.99;16.45;99092.88;5074695;28;20044;-80
2021/07/17 10:33:58;;;;;;;17.00;14.75;;;;;;;43.16;16.86;99094.13;5108492;28;20040;-79
2021/07/17 10:36:24;;;;;;;;;;;;;;;43.11;16.97;99097.13;5094777;28;20035;-82
2021/07/17 10:38:52;;;;;;;18.63;14.13;;;;;;;42.43;17.44;99104.91;5108740;28;19971;-83
2021/07/17 10:41:19;;;;;;;18.10;13.55;;;;;;;42.31;17.21;99100.19;5111309;28;20120;-80
2021/07/17 10:43:53;;;;;;;13.77;12.30;;;;;;;42.12;16.73;99094.31;5098561;28;20058;-79
2021/07/17 10:46:40;;;;;;;17.98;13.57;;;;;;;41.58;16.82;99103.53;5098668;28;20125;-79
2021/07/17 10:49:11;;;;;;;16.65;13.88;;;;;;;40.86;17.88;99107.13;5119051;28;20055;-76
2021/07/17 10:51:41;;;;;;;16.00;13.32;;;;;;;40.49;17.93;99098.47;5123757;28;20569;-78
2021/07/17 10:54:09;;;;;;;16.02;12.60;;;;;;;40.25;18.62;99105.41;5101520;28;20039;-78
2021/07/17 10:56:41;;;;;;;15.80;14.20;;;;;;;39.05;19.53;99093.75;5116694;28;20424;-80
2021/07/17 10:59:20;;;;;;;20.67;14.55;;;;;;;38.06;20.55;99102.28;5069367;28;20150;-84
2021/07/17 11:01:58;;;;;;;26.70;19.10;;;;;;;37.66;21.94;99102.97;5097789;28;20050;-88
2021/07/17 11:05:02;;;;;;;19.58;15.70;;;;;;;38.01;22.02;99095.78;5116668;28;20377;-80
2021/07/17 11:07:28;;;;;;;20.42;15.00;;;;;;;38.22;22.32;99084.16;5114900;28;20058;-79
2021/07/17 11:10:00;;;;;;;20.63;15.85;;;;;;;38.40;22.00;99092.59;5110444;28;20047;-83
2021/07/17 11:12:28;;;;;;;21.48;16.98;;;;;;;38.23;22.36;99090.53;5102024;28;20047;-82
2021/07/17 11:14:54;;;;;;;21.27;15.75;;;;;;;38.47;21.84;99095.69;5112885;28;20032;-76
2021/07/17 11:17:42;;;;;;;19.63;15.77;;;;;;;38.59;22.00;99093.13;5104008;28;20040;-79
2021/07/17 11:20:21;;;;;;;22.27;16.40;;;;;;;38.78;21.79;99089.31;5116409;28;20550;-82